sensor_id;sensor_type;location;lat;lon;timestamp;P1;durP1;ratioP1;P2;durP2;ratioP2
40945;SDS011;55635;50.264;11.918;2023-06-04T00:01:50;2.40;;;1.67;;
40945;SDS011;55635;50.264;11.918;2023-06-04T00:04:31;2.67;;;1.58;;
40945;SDS011;55635;50.264;11.918;2023-06-04T00:07:12;3.45;;;1.80;;
40945;SDS011;55635;50.264;11.918;2023-06-04T00:09:53;4.03;;;1.70;;
40945;SDS011;55635;50.264;11.918;2023-06-04T00:12:34;2.03;;;1.70;;
40945;SDS011;55635;50.264;11.918;2023-06-04T00:15:15;2.92;;;1.85;;
40945;SDS011;55635;50.264;11.918;2023-06-04T00:17:56;2.65;;;1.52;;
40945;SDS011;55635;50.264;11.918;2023-06-04T00:20:37;1.85;;;1.48;;
40945;SDS011;55635;50.264;11.918;2023-06-04T00:23:18;3.60;;;1.60;;
40945;SDS011;55635;50.264;11.918;2023-06-04T00:25:59;3.75;;;1.60;;
40945;SDS011;55635;50.264;11.918;2023-06-04T00:28:40;3.83;;;1.98;;
40945;SDS011;55635;50.264;11.918;2023-06-04T00:31:21;6.20;;;1.85;;
40945;SDS011;55635;50.264;11.918;2023-06-04T00:34:03;3.33;;;1.73;;
40945;SDS011;55635;50.264;11.918;2023-06-04T00:36:44;3.25;;;2.28;;
40945;SDS011;55635;50.264;11.918;2023-06-04T00:39:25;2.55;;;1.60;;
40945;SDS011;55635;50.264;11.918;2023-06-04T00:42:06;3.35;;;1.75;;
40945;SDS011;55635;50.264;11.918;2023-06-04T00:44:47;2.53;;;1.92;;
40945;SDS011;55635;50.264;11.918;2023-06-04T00:47:28;2.25;;;2.05;;
40945;SDS011;55635;50.264;11.918;2023-06-04T00:50:09;2.28;;;2.08;;
40945;SDS011;55635;50.264;11.918;2023-06-04T00:52:50;5.78;;;2.60;;
40945;SDS011;55635;50.264;11.918;2023-06-04T00:55:32;6.63;;;2.97;;
40945;SDS011;55635;50.264;11.918;2023-06-04T00:58:13;11.95;;;4.78;;
40945;SDS011;55635;50.264;11.918;2023-06-04T01:00:55;9.48;;;5.28;;
40945;SDS011;55635;50.264;11.918;2023-06-04T01:03:40;6.75;;;3.20;;
40945;SDS011;55635;50.264;11.918;2023-06-04T01:06:31;22.20;;;10.25;;
40945;SDS011;55635;50.264;11.918;2023-06-04T01:09:22;38.97;;;19.60;;
40945;SDS011;55635;50.264;11.918;2023-06-04T01:12:07;17.80;;;9.32;;
40945;SDS011;55635;50.264;11.918;2023-06-04T01:14:48;19.42;;;9.38;;
40945;SDS011;55635;50.264;11.918;2023-06-04T01:17:31;10.90;;;6.63;;
40945;SDS011;55635;50.264;11.918;2023-06-04T01:26:30;14.85;;;7.78;;
40945;SDS011;55635;50.264;11.918;2023-06-04T01:29:11;21.90;;;9.38;;
40945;SDS011;55635;50.264;11.918;2023-06-04T01:31:52;16.30;;;8.70;;
40945;SDS011;55635;50.264;11.918;2023-06-04T01:34:45;18.77;;;8.73;;
40945;SDS011;55635;50.264;11.918;2023-06-04T01:37:27;20.95;;;10.90;;
40945;SDS011;55635;50.264;11.918;2023-06-04T01:40:08;24.30;;;11.10;;
40945;SDS011;55635;50.264;11.918;2023-06-04T01:42:49;43.88;;;19.83;;
40945;SDS011;55635;50.264;11.918;2023-06-04T01:45:30;53.22;;;20.98;;
40945;SDS011;55635;50.264;11.918;2023-06-04T01:48:11;35.63;;;17.60;;
40945;SDS011;55635;50.264;11.918;2023-06-04T01:50:52;33.80;;;16.40;;
40945;SDS011;55635;50.264;11.918;2023-06-04T01:53:33;31.77;;;16.55;;
40945;SDS011;55635;50.264;11.918;2023-06-04T01:56:14;28.52;;;14.32;;
40945;SDS011;55635;50.264;11.918;2023-06-04T01:58:55;33.75;;;16.67;;
40945;SDS011;55635;50.264;11.918;2023-06-04T02:01:36;32.50;;;16.20;;
40945;SDS011;55635;50.264;11.918;2023-06-04T02:04:17;33.35;;;16.40;;
40945;SDS011;55635;50.264;11.918;2023-06-04T02:06:58;34.95;;;17.77;;
40945;SDS011;55635;50.264;11.918;2023-06-04T02:09:39;26.63;;;13.82;;
40945;SDS011;55635;50.264;11.918;2023-06-04T02:12:21;28.15;;;14.50;;
40945;SDS011;55635;50.264;11.918;2023-06-04T02:15:02;22.70;;;12.13;;
40945;SDS011;55635;50.264;11.918;2023-06-04T02:17:44;23.48;;;12.55;;
40945;SDS011;55635;50.264;11.918;2023-06-04T02:20:26;19.88;;;10.38;;
40945;SDS011;55635;50.264;11.918;2023-06-04T02:23:07;19.92;;;10.65;;
40945;SDS011;55635;50.264;11.918;2023-06-04T02:25:48;19.63;;;10.30;;
40945;SDS011;55635;50.264;11.918;2023-06-04T02:28:29;28.05;;;13.43;;
40945;SDS011;55635;50.264;11.918;2023-06-04T02:31:11;18.58;;;10.68;;
40945;SDS011;55635;50.264;11.918;2023-06-04T02:33:52;19.95;;;10.50;;
40945;SDS011;55635;50.264;11.918;2023-06-04T02:36:33;18.25;;;8.93;;
40945;SDS011;55635;50.264;11.918;2023-06-04T02:39:14;16.00;;;8.32;;
40945;SDS011;55635;50.264;11.918;2023-06-04T02:41:55;18.90;;;8.63;;
40945;SDS011;55635;50.264;11.918;2023-06-04T02:44:36;13.15;;;7.78;;
40945;SDS011;55635;50.264;11.918;2023-06-04T02:47:17;17.30;;;9.15;;
40945;SDS011;55635;50.264;11.918;2023-06-04T02:49:59;21.45;;;9.73;;
40945;SDS011;55635;50.264;11.918;2023-06-04T02:52:40;19.42;;;9.95;;
40945;SDS011;55635;50.264;11.918;2023-06-04T02:55:22;18.55;;;9.73;;
40945;SDS011;55635;50.264;11.918;2023-06-04T02:58:04;15.93;;;8.75;;
40945;SDS011;55635;50.264;11.918;2023-06-04T03:00:45;17.90;;;9.02;;
40945;SDS011;55635;50.264;11.918;2023-06-04T03:03:25;16.02;;;9.00;;
40945;SDS011;55635;50.264;11.918;2023-06-04T03:06:07;15.25;;;8.05;;
40945;SDS011;55635;50.264;11.918;2023-06-04T03:08:51;13.98;;;8.93;;
40945;SDS011;55635;50.264;11.918;2023-06-04T03:11:37;16.88;;;7.57;;
40945;SDS011;55635;50.264;11.918;2023-06-04T03:14:18;15.85;;;7.57;;
40945;SDS011;55635;50.264;11.918;2023-06-04T03:16:59;26.38;;;7.97;;
40945;SDS011;55635;50.264;11.918;2023-06-04T03:19:47;16.38;;;8.05;;
40945;SDS011;55635;50.264;11.918;2023-06-04T03:22:28;14.23;;;6.97;;
40945;SDS011;55635;50.264;11.918;2023-06-04T03:25:09;15.20;;;7.18;;
40945;SDS011;55635;50.264;11.918;2023-06-04T03:27:50;9.93;;;5.57;;
40945;SDS011;55635;50.264;11.918;2023-06-04T03:30:31;8.23;;;4.90;;
40945;SDS011;55635;50.264;11.918;2023-06-04T03:33:14;10.40;;;6.32;;
40945;SDS011;55635;50.264;11.918;2023-06-04T03:35:55;8.95;;;5.53;;
40945;SDS011;55635;50.264;11.918;2023-06-04T03:38:39;8.07;;;5.20;;
40945;SDS011;55635;50.264;11.918;2023-06-04T03:41:20;9.52;;;5.85;;
40945;SDS011;55635;50.264;11.918;2023-06-04T03:44:01;9.30;;;4.72;;
40945;SDS011;55635;50.264;11.918;2023-06-04T03:46:44;6.93;;;4.40;;
40945;SDS011;55635;50.264;11.918;2023-06-04T03:49:26;8.40;;;5.07;;
40945;SDS011;55635;50.264;11.918;2023-06-04T03:52:08;7.70;;;4.72;;
40945;SDS011;55635;50.264;11.918;2023-06-04T03:54:51;7.15;;;5.10;;
40945;SDS011;55635;50.264;11.918;2023-06-04T03:57:32;8.15;;;4.63;;
40945;SDS011;55635;50.264;11.918;2023-06-04T04:00:14;6.47;;;4.43;;
40945;SDS011;55635;50.264;11.918;2023-06-04T04:02:59;7.85;;;4.53;;
40945;SDS011;55635;50.264;11.918;2023-06-04T04:05:43;9.02;;;4.55;;
40945;SDS011;55635;50.264;11.918;2023-06-04T04:08:23;8.65;;;5.40;;
40945;SDS011;55635;50.264;11.918;2023-06-04T04:11:06;8.48;;;4.95;;
40945;SDS011;55635;50.264;11.918;2023-06-04T04:13:48;8.18;;;5.10;;
40945;SDS011;55635;50.264;11.918;2023-06-04T04:16:30;9.70;;;4.65;;
40945;SDS011;55635;50.264;11.918;2023-06-04T04:19:11;16.23;;;5.65;;
40945;SDS011;55635;50.264;11.918;2023-06-04T04:21:53;6.93;;;4.38;;
40945;SDS011;55635;50.264;11.918;2023-06-04T04:24:35;7.40;;;4.15;;
40945;SDS011;55635;50.264;11.918;2023-06-04T04:27:17;5.80;;;3.85;;
40945;SDS011;55635;50.264;11.918;2023-06-04T04:29:58;8.10;;;3.83;;
40945;SDS011;55635;50.264;11.918;2023-06-04T04:32:41;4.53;;;3.22;;
40945;SDS011;55635;50.264;11.918;2023-06-04T04:35:31;5.22;;;3.20;;
40945;SDS011;55635;50.264;11.918;2023-06-04T04:38:16;6.10;;;4.20;;
40945;SDS011;55635;50.264;11.918;2023-06-04T04:41:03;5.15;;;3.67;;
40945;SDS011;55635;50.264;11.918;2023-06-04T04:43:44;4.28;;;2.88;;
40945;SDS011;55635;50.264;11.918;2023-06-04T04:46:34;6.60;;;3.28;;
40945;SDS011;55635;50.264;11.918;2023-06-04T04:49:14;5.60;;;3.55;;
40945;SDS011;55635;50.264;11.918;2023-06-04T04:51:55;4.13;;;3.20;;
40945;SDS011;55635;50.264;11.918;2023-06-04T04:54:37;4.82;;;3.90;;
40945;SDS011;55635;50.264;11.918;2023-06-04T04:57:18;7.57;;;4.25;;
40945;SDS011;55635;50.264;11.918;2023-06-04T05:00:04;6.20;;;3.70;;
40945;SDS011;55635;50.264;11.918;2023-06-04T05:02:47;5.00;;;3.45;;
40945;SDS011;55635;50.264;11.918;2023-06-04T05:05:28;5.97;;;4.40;;
40945;SDS011;55635;50.264;11.918;2023-06-04T05:08:09;7.78;;;4.82;;
40945;SDS011;55635;50.264;11.918;2023-06-04T05:10:54;5.57;;;3.92;;
40945;SDS011;55635;50.264;11.918;2023-06-04T05:13:35;6.65;;;3.92;;
40945;SDS011;55635;50.264;11.918;2023-06-04T05:16:18;7.30;;;4.70;;
40945;SDS011;55635;50.264;11.918;2023-06-04T05:19:01;5.30;;;3.88;;
40945;SDS011;55635;50.264;11.918;2023-06-04T05:21:46;5.07;;;4.15;;
40945;SDS011;55635;50.264;11.918;2023-06-04T05:24:30;4.53;;;3.67;;
40945;SDS011;55635;50.264;11.918;2023-06-04T05:27:14;5.72;;;3.13;;
40945;SDS011;55635;50.264;11.918;2023-06-04T05:29:56;4.82;;;3.70;;
40945;SDS011;55635;50.264;11.918;2023-06-04T05:32:37;5.95;;;3.95;;
40945;SDS011;55635;50.264;11.918;2023-06-04T05:35:22;4.97;;;3.13;;
40945;SDS011;55635;50.264;11.918;2023-06-04T05:38:03;6.03;;;3.55;;
40945;SDS011;55635;50.264;11.918;2023-06-04T05:40:45;7.63;;;3.75;;
40945;SDS011;55635;50.264;11.918;2023-06-04T05:43:27;5.07;;;3.65;;
40945;SDS011;55635;50.264;11.918;2023-06-04T05:46:08;6.78;;;3.10;;
40945;SDS011;55635;50.264;11.918;2023-06-04T05:48:51;3.40;;;2.95;;
40945;SDS011;55635;50.264;11.918;2023-06-04T05:51:33;3.60;;;2.97;;
40945;SDS011;55635;50.264;11.918;2023-06-04T05:54:16;3.40;;;2.83;;
40945;SDS011;55635;50.264;11.918;2023-06-04T05:56:58;5.38;;;2.58;;
40945;SDS011;55635;50.264;11.918;2023-06-04T05:59:39;4.00;;;2.50;;
40945;SDS011;55635;50.264;11.918;2023-06-04T06:02:23;5.38;;;2.45;;
40945;SDS011;55635;50.264;11.918;2023-06-04T06:05:04;3.88;;;2.10;;
40945;SDS011;55635;50.264;11.918;2023-06-04T06:07:48;5.35;;;2.83;;
40945;SDS011;55635;50.264;11.918;2023-06-04T06:10:29;3.40;;;2.15;;
40945;SDS011;55635;50.264;11.918;2023-06-04T06:13:10;2.67;;;2.22;;
40945;SDS011;55635;50.264;11.918;2023-06-04T06:15:52;2.88;;;2.58;;
40945;SDS011;55635;50.264;11.918;2023-06-04T06:18:35;2.78;;;2.30;;
40945;SDS011;55635;50.264;11.918;2023-06-04T06:21:16;3.33;;;2.47;;
40945;SDS011;55635;50.264;11.918;2023-06-04T06:23:57;3.30;;;2.33;;
40945;SDS011;55635;50.264;11.918;2023-06-04T06:26:39;8.23;;;2.33;;
40945;SDS011;55635;50.264;11.918;2023-06-04T06:29:21;2.47;;;2.10;;
40945;SDS011;55635;50.264;11.918;2023-06-04T06:32:04;3.13;;;2.33;;
40945;SDS011;55635;50.264;11.918;2023-06-04T06:34:45;2.13;;;2.00;;
40945;SDS011;55635;50.264;11.918;2023-06-04T06:37:26;2.88;;;2.03;;
40945;SDS011;55635;50.264;11.918;2023-06-04T06:40:07;2.53;;;2.33;;
40945;SDS011;55635;50.264;11.918;2023-06-04T06:42:49;2.28;;;1.98;;
40945;SDS011;55635;50.264;11.918;2023-06-04T06:45:32;3.17;;;1.90;;
40945;SDS011;55635;50.264;11.918;2023-06-04T06:48:13;2.97;;;1.73;;
40945;SDS011;55635;50.264;11.918;2023-06-04T06:50:54;2.85;;;1.83;;
40945;SDS011;55635;50.264;11.918;2023-06-04T06:53:35;2.72;;;1.90;;
40945;SDS011;55635;50.264;11.918;2023-06-04T06:56:16;3.85;;;2.00;;
40945;SDS011;55635;50.264;11.918;2023-06-04T06:58:58;3.90;;;1.60;;
40945;SDS011;55635;50.264;11.918;2023-06-04T07:01:39;3.85;;;1.90;;
40945;SDS011;55635;50.264;11.918;2023-06-04T07:04:20;3.08;;;1.60;;
40945;SDS011;55635;50.264;11.918;2023-06-04T07:07:01;2.38;;;1.83;;
40945;SDS011;55635;50.264;11.918;2023-06-04T07:09:43;1.70;;;1.60;;
40945;SDS011;55635;50.264;11.918;2023-06-04T07:12:24;1.75;;;1.50;;
40945;SDS011;55635;50.264;11.918;2023-06-04T07:15:05;1.70;;;1.48;;
40945;SDS011;55635;50.264;11.918;2023-06-04T07:17:48;1.40;;;1.30;;
40945;SDS011;55635;50.264;11.918;2023-06-04T07:20:29;3.80;;;1.45;;
40945;SDS011;55635;50.264;11.918;2023-06-04T07:23:10;1.70;;;1.38;;
40945;SDS011;55635;50.264;11.918;2023-06-04T07:25:51;2.70;;;1.38;;
40945;SDS011;55635;50.264;11.918;2023-06-04T07:28:32;1.45;;;1.35;;
40945;SDS011;55635;50.264;11.918;2023-06-04T07:31:16;1.60;;;1.50;;
40945;SDS011;55635;50.264;11.918;2023-06-04T07:33:58;2.28;;;1.77;;
40945;SDS011;55635;50.264;11.918;2023-06-04T07:36:38;2.15;;;1.25;;
40945;SDS011;55635;50.264;11.918;2023-06-04T07:39:19;2.88;;;1.35;;
40945;SDS011;55635;50.264;11.918;2023-06-04T07:42:01;3.92;;;1.00;;
40945;SDS011;55635;50.264;11.918;2023-06-04T07:44:44;2.67;;;1.20;;
40945;SDS011;55635;50.264;11.918;2023-06-04T07:47:25;1.23;;;1.10;;
40945;SDS011;55635;50.264;11.918;2023-06-04T07:50:06;1.30;;;1.20;;
40945;SDS011;55635;50.264;11.918;2023-06-04T07:52:48;2.92;;;1.08;;
40945;SDS011;55635;50.264;11.918;2023-06-04T07:55:29;1.88;;;1.45;;
40945;SDS011;55635;50.264;11.918;2023-06-04T07:58:11;1.60;;;0.85;;
40945;SDS011;55635;50.264;11.918;2023-06-04T08:00:53;1.50;;;1.13;;
40945;SDS011;55635;50.264;11.918;2023-06-04T08:03:34;3.40;;;0.88;;
40945;SDS011;55635;50.264;11.918;2023-06-04T08:06:16;1.83;;;1.08;;
40945;SDS011;55635;50.264;11.918;2023-06-04T08:08:57;1.80;;;1.10;;
40945;SDS011;55635;50.264;11.918;2023-06-04T08:11:38;1.13;;;1.02;;
40945;SDS011;55635;50.264;11.918;2023-06-04T08:14:22;3.35;;;1.20;;
40945;SDS011;55635;50.264;11.918;2023-06-04T08:17:04;1.80;;;0.90;;
40945;SDS011;55635;50.264;11.918;2023-06-04T08:19:45;3.63;;;1.00;;
40945;SDS011;55635;50.264;11.918;2023-06-04T08:22:26;2.58;;;1.25;;
40945;SDS011;55635;50.264;11.918;2023-06-04T08:25:09;1.50;;;1.20;;
40945;SDS011;55635;50.264;11.918;2023-06-04T08:27:50;2.55;;;1.55;;
40945;SDS011;55635;50.264;11.918;2023-06-04T08:30:31;2.30;;;1.10;;
40945;SDS011;55635;50.264;11.918;2023-06-04T08:33:15;1.38;;;0.90;;
40945;SDS011;55635;50.264;11.918;2023-06-04T08:35:56;3.55;;;1.20;;
40945;SDS011;55635;50.264;11.918;2023-06-04T08:38:37;3.22;;;1.23;;
40945;SDS011;55635;50.264;11.918;2023-06-04T08:41:28;4.15;;;1.38;;
40945;SDS011;55635;50.264;11.918;2023-06-04T08:44:10;2.60;;;1.10;;
40945;SDS011;55635;50.264;11.918;2023-06-04T08:46:51;2.55;;;1.20;;
40945;SDS011;55635;50.264;11.918;2023-06-04T08:49:34;2.90;;;1.15;;
40945;SDS011;55635;50.264;11.918;2023-06-04T08:52:16;3.15;;;0.90;;
40945;SDS011;55635;50.264;11.918;2023-06-04T08:55:01;2.75;;;1.20;;
40945;SDS011;55635;50.264;11.918;2023-06-04T08:57:42;2.35;;;1.10;;
40945;SDS011;55635;50.264;11.918;2023-06-04T09:00:23;1.85;;;1.15;;
40945;SDS011;55635;50.264;11.918;2023-06-04T09:03:04;4.20;;;1.25;;
40945;SDS011;55635;50.264;11.918;2023-06-04T09:05:45;2.92;;;1.00;;
40945;SDS011;55635;50.264;11.918;2023-06-04T09:08:34;2.15;;;1.05;;
40945;SDS011;55635;50.264;11.918;2023-06-04T09:11:17;5.22;;;1.48;;
40945;SDS011;55635;50.264;11.918;2023-06-04T09:14:02;1.85;;;1.30;;
40945;SDS011;55635;50.264;11.918;2023-06-04T09:16:51;4.00;;;1.13;;
40945;SDS011;55635;50.264;11.918;2023-06-04T09:19:35;1.75;;;1.00;;
40945;SDS011;55635;50.264;11.918;2023-06-04T09:22:16;1.15;;;0.95;;
40945;SDS011;55635;50.264;11.918;2023-06-04T09:24:57;1.55;;;1.45;;
40945;SDS011;55635;50.264;11.918;2023-06-04T09:27:38;2.40;;;1.25;;
40945;SDS011;55635;50.264;11.918;2023-06-04T09:30:20;2.22;;;1.25;;
40945;SDS011;55635;50.264;11.918;2023-06-04T09:33:06;3.17;;;1.10;;
40945;SDS011;55635;50.264;11.918;2023-06-04T09:35:55;4.50;;;1.35;;
40945;SDS011;55635;50.264;11.918;2023-06-04T09:38:37;3.90;;;0.98;;
40945;SDS011;55635;50.264;11.918;2023-06-04T09:41:22;2.25;;;1.25;;
40945;SDS011;55635;50.264;11.918;2023-06-04T09:44:03;3.55;;;1.13;;
40945;SDS011;55635;50.264;11.918;2023-06-04T09:46:52;2.28;;;1.10;;
40945;SDS011;55635;50.264;11.918;2023-06-04T09:49:47;5.85;;;1.30;;
40945;SDS011;55635;50.264;11.918;2023-06-04T09:52:34;1.85;;;1.27;;
40945;SDS011;55635;50.264;11.918;2023-06-04T09:55:15;3.25;;;1.25;;
40945;SDS011;55635;50.264;11.918;2023-06-04T09:58:00;3.28;;;1.10;;
40945;SDS011;55635;50.264;11.918;2023-06-04T10:00:43;2.35;;;1.40;;
40945;SDS011;55635;50.264;11.918;2023-06-04T10:03:25;2.22;;;1.35;;
40945;SDS011;55635;50.264;11.918;2023-06-04T10:06:13;6.47;;;1.40;;
40945;SDS011;55635;50.264;11.918;2023-06-04T10:08:58;5.88;;;4.13;;
40945;SDS011;55635;50.264;11.918;2023-06-04T10:11:45;3.63;;;1.50;;
40945;SDS011;55635;50.264;11.918;2023-06-04T10:14:37;2.85;;;1.38;;
40945;SDS011;55635;50.264;11.918;2023-06-04T10:17:25;1.77;;;1.10;;
40945;SDS011;55635;50.264;11.918;2023-06-04T10:20:09;4.88;;;1.20;;
40945;SDS011;55635;50.264;11.918;2023-06-04T10:22:51;1.58;;;1.30;;
40945;SDS011;55635;50.264;11.918;2023-06-04T10:25:32;3.00;;;1.63;;
40945;SDS011;55635;50.264;11.918;2023-06-04T10:28:14;1.20;;;1.05;;
40945;SDS011;55635;50.264;11.918;2023-06-04T10:30:58;6.32;;;1.45;;
40945;SDS011;55635;50.264;11.918;2023-06-04T10:33:39;1.27;;;1.10;;
40945;SDS011;55635;50.264;11.918;2023-06-04T10:36:20;1.23;;;1.10;;
40945;SDS011;55635;50.264;11.918;2023-06-04T10:39:03;2.35;;;1.30;;
40945;SDS011;55635;50.264;11.918;2023-06-04T10:41:45;2.10;;;1.42;;
40945;SDS011;55635;50.264;11.918;2023-06-04T10:44:46;2.90;;;1.10;;
40945;SDS011;55635;50.264;11.918;2023-06-04T10:47:29;3.15;;;1.50;;
40945;SDS011;55635;50.264;11.918;2023-06-04T10:50:13;1.55;;;1.10;;
40945;SDS011;55635;50.264;11.918;2023-06-04T10:52:55;3.22;;;1.50;;
40945;SDS011;55635;50.264;11.918;2023-06-04T10:55:46;4.45;;;2.25;;
40945;SDS011;55635;50.264;11.918;2023-06-04T10:58:32;2.53;;;2.30;;
40945;SDS011;55635;50.264;11.918;2023-06-04T11:01:22;2.60;;;1.30;;
40945;SDS011;55635;50.264;11.918;2023-06-04T11:04:21;2.95;;;1.63;;
40945;SDS011;55635;50.264;11.918;2023-06-04T11:07:06;4.03;;;1.35;;
40945;SDS011;55635;50.264;11.918;2023-06-04T11:09:50;1.80;;;1.38;;
40945;SDS011;55635;50.264;11.918;2023-06-04T11:12:41;1.35;;;1.25;;
40945;SDS011;55635;50.264;11.918;2023-06-04T11:15:26;2.75;;;1.40;;
40945;SDS011;55635;50.264;11.918;2023-06-04T11:18:07;2.60;;;1.33;;
40945;SDS011;55635;50.264;11.918;2023-06-04T11:20:49;2.38;;;1.45;;
40945;SDS011;55635;50.264;11.918;2023-06-04T11:23:40;1.10;;;1.00;;
40945;SDS011;55635;50.264;11.918;2023-06-04T11:26:22;1.55;;;1.23;;
40945;SDS011;55635;50.264;11.918;2023-06-04T11:29:17;2.35;;;1.50;;
40945;SDS011;55635;50.264;11.918;2023-06-04T11:31:58;1.20;;;1.10;;
40945;SDS011;55635;50.264;11.918;2023-06-04T11:34:41;1.73;;;1.30;;
40945;SDS011;55635;50.264;11.918;2023-06-04T11:37:33;3.53;;;1.30;;
40945;SDS011;55635;50.264;11.918;2023-06-04T11:40:16;1.98;;;1.17;;
40945;SDS011;55635;50.264;11.918;2023-06-04T11:42:58;2.95;;;1.30;;
40945;SDS011;55635;50.264;11.918;2023-06-04T11:45:39;2.70;;;1.13;;
40945;SDS011;55635;50.264;11.918;2023-06-04T11:48:20;2.55;;;1.23;;
40945;SDS011;55635;50.264;11.918;2023-06-04T11:51:04;3.55;;;1.45;;
40945;SDS011;55635;50.264;11.918;2023-06-04T11:53:49;3.00;;;1.05;;
40945;SDS011;55635;50.264;11.918;2023-06-04T11:56:30;1.55;;;1.40;;
40945;SDS011;55635;50.264;11.918;2023-06-04T11:59:15;1.98;;;1.30;;
40945;SDS011;55635;50.264;11.918;2023-06-04T12:01:57;2.08;;;1.50;;
40945;SDS011;55635;50.264;11.918;2023-06-04T12:04:38;1.30;;;1.20;;
40945;SDS011;55635;50.264;11.918;2023-06-04T12:07:19;1.75;;;1.30;;
40945;SDS011;55635;50.264;11.918;2023-06-04T12:10:07;2.13;;;1.27;;
40945;SDS011;55635;50.264;11.918;2023-06-04T12:12:55;1.92;;;0.95;;
40945;SDS011;55635;50.264;11.918;2023-06-04T12:15:36;3.30;;;1.40;;
40945;SDS011;55635;50.264;11.918;2023-06-04T12:18:23;1.90;;;1.42;;
40945;SDS011;55635;50.264;11.918;2023-06-04T12:21:05;2.05;;;1.10;;
40945;SDS011;55635;50.264;11.918;2023-06-04T12:27:00;3.28;;;1.33;;
40945;SDS011;55635;50.264;11.918;2023-06-04T12:29:53;1.65;;;1.25;;
40945;SDS011;55635;50.264;11.918;2023-06-04T12:32:48;3.13;;;1.40;;
40945;SDS011;55635;50.264;11.918;2023-06-04T12:35:34;3.65;;;2.03;;
40945;SDS011;55635;50.264;11.918;2023-06-04T12:38:15;1.80;;;1.70;;
40945;SDS011;55635;50.264;11.918;2023-06-04T12:40:56;1.92;;;1.50;;
40945;SDS011;55635;50.264;11.918;2023-06-04T12:43:37;4.03;;;2.65;;
40945;SDS011;55635;50.264;11.918;2023-06-04T12:46:19;3.28;;;1.80;;
40945;SDS011;55635;50.264;11.918;2023-06-04T12:49:02;5.93;;;2.00;;
40945;SDS011;55635;50.264;11.918;2023-06-04T12:51:43;1.85;;;1.40;;
40945;SDS011;55635;50.264;11.918;2023-06-04T12:54:24;2.92;;;1.70;;
40945;SDS011;55635;50.264;11.918;2023-06-04T12:57:07;2.13;;;1.42;;
40945;SDS011;55635;50.264;11.918;2023-06-04T12:59:48;1.40;;;1.27;;
40945;SDS011;55635;50.264;11.918;2023-06-04T13:02:29;3.05;;;1.95;;
40945;SDS011;55635;50.264;11.918;2023-06-04T13:05:09;6.22;;;1.73;;
40945;SDS011;55635;50.264;11.918;2023-06-04T13:07:50;1.85;;;1.70;;
40945;SDS011;55635;50.264;11.918;2023-06-04T13:10:31;4.50;;;1.27;;
40945;SDS011;55635;50.264;11.918;2023-06-04T13:13:12;4.65;;;1.30;;
40945;SDS011;55635;50.264;11.918;2023-06-04T13:15:55;6.50;;;1.38;;
40945;SDS011;55635;50.264;11.918;2023-06-04T13:18:37;1.30;;;1.20;;
40945;SDS011;55635;50.264;11.918;2023-06-04T13:21:18;4.03;;;1.58;;
40945;SDS011;55635;50.264;11.918;2023-06-04T13:23:59;4.25;;;2.13;;
40945;SDS011;55635;50.264;11.918;2023-06-04T13:26:40;4.25;;;2.05;;
40945;SDS011;55635;50.264;11.918;2023-06-04T13:29:22;4.10;;;1.45;;
40945;SDS011;55635;50.264;11.918;2023-06-04T13:32:03;1.30;;;1.20;;
40945;SDS011;55635;50.264;11.918;2023-06-04T13:34:44;1.48;;;1.30;;
40945;SDS011;55635;50.264;11.918;2023-06-04T13:37:26;5.35;;;1.73;;
40945;SDS011;55635;50.264;11.918;2023-06-04T13:40:07;1.60;;;1.30;;
40945;SDS011;55635;50.264;11.918;2023-06-04T13:42:48;4.20;;;1.60;;
40945;SDS011;55635;50.264;11.918;2023-06-04T13:45:29;2.50;;;1.60;;
40945;SDS011;55635;50.264;11.918;2023-06-04T13:48:10;1.50;;;1.40;;
40945;SDS011;55635;50.264;11.918;2023-06-04T13:50:52;1.80;;;1.38;;
40945;SDS011;55635;50.264;11.918;2023-06-04T13:53:33;3.28;;;1.50;;
40945;SDS011;55635;50.264;11.918;2023-06-04T13:56:14;2.13;;;1.15;;
40945;SDS011;55635;50.264;11.918;2023-06-04T13:58:55;3.40;;;1.45;;
40945;SDS011;55635;50.264;11.918;2023-06-04T14:01:36;5.88;;;1.38;;
40945;SDS011;55635;50.264;11.918;2023-06-04T14:04:17;1.55;;;1.25;;
40945;SDS011;55635;50.264;11.918;2023-06-04T14:06:59;1.42;;;1.33;;
40945;SDS011;55635;50.264;11.918;2023-06-04T14:09:40;1.42;;;1.10;;
40945;SDS011;55635;50.264;11.918;2023-06-04T14:12:21;1.45;;;1.17;;
40945;SDS011;55635;50.264;11.918;2023-06-04T14:15:03;1.65;;;1.20;;
40945;SDS011;55635;50.264;11.918;2023-06-04T14:17:45;5.70;;;1.58;;
40945;SDS011;55635;50.264;11.918;2023-06-04T14:20:27;3.50;;;1.40;;
40945;SDS011;55635;50.264;11.918;2023-06-04T14:23:08;2.75;;;1.30;;
40945;SDS011;55635;50.264;11.918;2023-06-04T14:25:49;1.27;;;1.10;;
40945;SDS011;55635;50.264;11.918;2023-06-04T14:28:30;1.58;;;1.02;;
40945;SDS011;55635;50.264;11.918;2023-06-04T14:31:11;1.40;;;1.30;;
40945;SDS011;55635;50.264;11.918;2023-06-04T14:33:52;2.30;;;1.15;;
40945;SDS011;55635;50.264;11.918;2023-06-04T14:36:33;1.50;;;1.17;;
40945;SDS011;55635;50.264;11.918;2023-06-04T14:39:14;1.80;;;1.50;;
40945;SDS011;55635;50.264;11.918;2023-06-04T14:41:55;1.85;;;1.60;;
40945;SDS011;55635;50.264;11.918;2023-06-04T14:44:35;1.35;;;1.15;;
40945;SDS011;55635;50.264;11.918;2023-06-04T14:47:16;1.30;;;1.20;;
40945;SDS011;55635;50.264;11.918;2023-06-04T14:49:57;2.60;;;1.30;;
40945;SDS011;55635;50.264;11.918;2023-06-04T14:52:38;2.45;;;1.38;;
40945;SDS011;55635;50.264;11.918;2023-06-04T14:55:19;2.80;;;1.20;;
40945;SDS011;55635;50.264;11.918;2023-06-04T14:58:00;3.15;;;1.40;;
40945;SDS011;55635;50.264;11.918;2023-06-04T15:00:43;3.58;;;1.48;;
40945;SDS011;55635;50.264;11.918;2023-06-04T15:03:24;3.15;;;1.17;;
40945;SDS011;55635;50.264;11.918;2023-06-04T15:06:06;1.58;;;1.13;;
40945;SDS011;55635;50.264;11.918;2023-06-04T15:08:47;4.05;;;1.70;;
40945;SDS011;55635;50.264;11.918;2023-06-04T15:11:28;2.38;;;1.50;;
40945;SDS011;55635;50.264;11.918;2023-06-04T15:14:09;1.92;;;1.50;;
40945;SDS011;55635;50.264;11.918;2023-06-04T15:16:50;1.90;;;1.77;;
40945;SDS011;55635;50.264;11.918;2023-06-04T15:19:31;4.72;;;2.60;;
40945;SDS011;55635;50.264;11.918;2023-06-04T15:22:12;4.07;;;1.77;;
40945;SDS011;55635;50.264;11.918;2023-06-04T15:24:54;2.88;;;1.73;;
40945;SDS011;55635;50.264;11.918;2023-06-04T15:27:34;3.85;;;1.40;;
40945;SDS011;55635;50.264;11.918;2023-06-04T15:30:16;3.25;;;1.40;;
40945;SDS011;55635;50.264;11.918;2023-06-04T15:33:00;1.20;;;1.10;;
40945;SDS011;55635;50.264;11.918;2023-06-04T15:35:42;5.15;;;1.40;;
40945;SDS011;55635;50.264;11.918;2023-06-04T15:38:23;2.33;;;1.40;;
40945;SDS011;55635;50.264;11.918;2023-06-04T15:41:05;1.98;;;1.33;;
40945;SDS011;55635;50.264;11.918;2023-06-04T15:43:46;1.55;;;1.45;;
40945;SDS011;55635;50.264;11.918;2023-06-04T15:46:27;2.47;;;1.05;;
40945;SDS011;55635;50.264;11.918;2023-06-04T15:49:08;2.25;;;1.10;;
40945;SDS011;55635;50.264;11.918;2023-06-04T15:51:49;2.03;;;1.58;;
40945;SDS011;55635;50.264;11.918;2023-06-04T15:54:30;1.65;;;1.40;;
40945;SDS011;55635;50.264;11.918;2023-06-04T15:57:11;2.08;;;1.70;;
40945;SDS011;55635;50.264;11.918;2023-06-04T15:59:52;2.25;;;1.70;;
40945;SDS011;55635;50.264;11.918;2023-06-04T16:02:33;3.03;;;1.60;;
40945;SDS011;55635;50.264;11.918;2023-06-04T16:05:15;1.88;;;1.27;;
40945;SDS011;55635;50.264;11.918;2023-06-04T16:07:56;4.30;;;1.45;;
40945;SDS011;55635;50.264;11.918;2023-06-04T16:10:37;4.28;;;2.40;;